createdAt,value
2018-12-14T04:45:20.693Z,6.33
2018-12-14T04:47:53.095Z,6.27
2018-12-14T04:50:25.511Z,5.60
2018-12-14T04:52:57.937Z,6.20
2018-12-14T04:55:30.969Z,6.63
2018-12-14T04:58:03.386Z,6.40
2018-12-14T05:00:35.797Z,6.10
2018-12-14T05:03:08.221Z,5.27
2018-12-14T05:05:41.236Z,6.50
2018-12-14T05:08:13.648Z,6.37
2018-12-14T05:10:46.696Z,6.23
2018-12-14T05:13:19.117Z,6.53
2018-12-14T05:15:51.541Z,6.33
2018-12-14T05:18:24.314Z,6.37
2018-12-14T05:20:56.727Z,6.37
2018-12-14T05:23:29.372Z,7.13
2018-12-14T05:26:01.788Z,6.20
2018-12-14T05:28:34.216Z,6.77
2018-12-14T05:31:07.024Z,6.53
2018-12-14T05:33:39.420Z,6.20
2018-12-14T05:36:11.860Z,6.67
2018-12-14T05:38:44.575Z,7.03
2018-12-14T05:41:17.032Z,7.03
2018-12-14T05:43:49.437Z,6.43
2018-12-14T05:46:21.860Z,6.47
2018-12-14T05:48:54.351Z,7.00
2018-12-14T05:51:27.139Z,6.47
2018-12-14T05:53:59.544Z,7.57
2018-12-14T05:56:31.977Z,6.80
2018-12-14T05:59:04.379Z,7.40
2018-12-14T06:01:36.792Z,6.83
2018-12-14T06:04:09.559Z,7.07
2018-12-14T06:06:42.335Z,7.00
2018-12-14T06:09:14.943Z,6.60
2018-12-14T06:11:47.594Z,7.00
2018-12-14T06:14:20.343Z,7.20
2018-12-14T06:16:53.061Z,7.10
2018-12-14T06:19:25.481Z,7.50
2018-12-14T06:21:57.955Z,7.33
2018-12-14T06:24:30.355Z,7.17
2018-12-14T06:27:02.935Z,7.77
2018-12-14T06:29:35.355Z,7.80
2018-12-14T06:32:07.784Z,7.30
2018-12-14T06:34:40.209Z,7.67
2018-12-14T06:37:12.951Z,7.73
2018-12-14T06:39:45.351Z,7.93
2018-12-14T06:42:17.799Z,7.27
2018-12-14T06:44:50.200Z,8.50
2018-12-14T06:47:23.260Z,7.80
2018-12-14T06:49:55.736Z,9.20
2018-12-14T06:52:28.181Z,7.93
2018-12-14T06:55:00.872Z,9.00
2018-12-14T06:57:33.303Z,7.90
2018-12-14T07:00:06.895Z,8.60
2018-12-14T07:02:39.832Z,7.97
2018-12-14T07:05:12.268Z,8.87
2018-12-14T07:07:44.692Z,8.80
2018-12-14T07:10:17.095Z,8.90
2018-12-14T07:12:49.940Z,8.47
2018-12-14T07:15:22.688Z,8.70
2018-12-14T07:17:55.131Z,8.47
2018-12-14T07:20:27.539Z,8.43
2018-12-14T07:22:59.983Z,8.50
2018-12-14T07:25:32.401Z,9.23
2018-12-14T07:28:04.829Z,8.80
2018-12-14T07:30:37.234Z,8.30
2018-12-14T07:33:09.656Z,9.13
2018-12-14T07:35:42.298Z,8.43
2018-12-14T07:38:14.824Z,8.87
2018-12-14T07:40:47.231Z,9.40
2018-12-14T07:43:19.696Z,9.70
2018-12-14T07:45:52.334Z,9.30
2018-12-14T07:48:24.792Z,8.90
2018-12-14T07:50:57.239Z,9.10
2018-12-14T07:53:29.667Z,8.63
2018-12-14T07:56:02.128Z,8.53
2018-12-14T07:58:34.526Z,8.80
2018-12-14T08:01:06.996Z,10.10
2018-12-14T08:03:39.474Z,7.97
2018-12-14T08:06:12.178Z,9.47
2018-12-14T08:08:44.899Z,9.83
2018-12-14T08:11:17.305Z,9.03
2018-12-14T08:13:49.752Z,9.17
2018-12-14T08:16:22.175Z,8.53
2018-12-14T08:18:54.602Z,8.37
2018-12-14T08:21:27.315Z,9.60
2018-12-14T08:23:59.757Z,9.20
2018-12-14T08:26:32.144Z,8.97
2018-12-14T08:29:05.183Z,9.63
2018-12-14T08:31:37.604Z,10.07
2018-12-14T08:34:10.336Z,9.33
2018-12-14T08:36:42.763Z,9.77
2018-12-14T08:39:15.184Z,9.00
2018-12-14T08:41:47.609Z,9.83
2018-12-14T08:44:20.329Z,8.93
2018-12-14T08:46:52.756Z,9.17
2018-12-14T08:49:25.492Z,9.70
2018-12-14T08:51:58.244Z,9.63
2018-12-14T08:54:30.671Z,9.80
2018-12-14T08:57:03.099Z,10.40
2018-12-14T08:59:35.516Z,10.10
2018-12-14T09:02:07.922Z,9.97
2018-12-14T09:04:40.372Z,10.90
2018-12-14T09:07:12.781Z,10.23
2018-12-14T09:09:45.212Z,10.23
2018-12-14T09:12:17.612Z,10.03
2018-12-14T09:14:50.056Z,10.83
2018-12-14T09:17:22.475Z,10.40
2018-12-14T09:19:55.160Z,10.40
2018-12-14T09:22:27.824Z,11.57
2018-12-14T09:25:00.252Z,10.23
2018-12-14T09:27:32.675Z,10.67
2018-12-14T09:30:05.356Z,10.43
2018-12-14T09:32:38.436Z,10.27
2018-12-14T09:35:11.565Z,11.57
2018-12-14T09:37:43.966Z,10.27
2018-12-14T09:40:16.632Z,9.73
2018-12-14T09:42:49.360Z,10.70
2018-12-14T09:45:21.788Z,10.07
2018-12-14T09:47:54.227Z,10.73
2018-12-14T09:50:26.676Z,11.17
2018-12-14T09:52:59.125Z,10.33
2018-12-14T09:55:31.856Z,11.53
2018-12-14T09:58:04.282Z,11.27
2018-12-14T10:00:36.719Z,10.33
2018-12-14T10:03:09.459Z,10.07
2018-12-14T10:05:41.896Z,10.83
2018-12-14T10:08:14.615Z,10.23
2018-12-14T10:10:47.340Z,10.03
2018-12-14T10:13:19.762Z,10.93
2018-12-14T10:15:52.487Z,10.47
2018-12-14T10:18:24.931Z,10.93
2018-12-14T10:20:57.623Z,11.17
2018-12-14T10:23:30.056Z,11.00
2018-12-14T10:26:02.483Z,10.83
2018-12-14T10:28:34.916Z,10.17
2018-12-14T10:31:07.597Z,10.07
2018-12-14T10:33:40.098Z,10.77
2018-12-14T10:36:12.537Z,10.37
2018-12-14T10:38:45.460Z,11.17
2018-12-14T10:41:17.881Z,10.37
2018-12-14T10:43:50.299Z,11.30
2018-12-14T10:46:22.727Z,10.23
2018-12-14T10:48:55.405Z,9.87
2018-12-14T10:51:27.912Z,10.43
2018-12-14T10:54:00.305Z,11.47
2018-12-14T10:56:32.972Z,10.67
2018-12-14T10:59:05.396Z,10.97
2018-12-14T11:01:37.833Z,11.07
2018-12-14T11:04:10.516Z,10.13
2018-12-14T11:06:42.979Z,10.53
2018-12-14T11:09:15.375Z,10.67
2018-12-14T11:11:47.810Z,10.73
2018-12-14T11:14:20.235Z,11.17
2018-12-14T11:16:52.669Z,11.10
2018-12-14T11:19:25.079Z,10.90
2018-12-14T11:21:57.506Z,10.50
2018-12-14T11:24:29.923Z,11.47
2018-12-14T11:27:02.464Z,11.13
2018-12-14T11:29:35.135Z,10.43
2018-12-14T11:32:07.571Z,10.33
2018-12-14T11:34:39.996Z,11.37
2018-12-14T11:37:12.412Z,11.23
2018-12-14T11:39:44.940Z,10.97
2018-12-14T11:42:17.383Z,10.00
2018-12-14T11:44:49.780Z,10.77
2018-12-14T11:47:22.220Z,11.70
2018-12-14T11:49:54.631Z,11.43
2018-12-14T11:52:27.081Z,10.07
2018-12-14T11:54:59.489Z,9.77
2018-12-14T11:57:31.916Z,10.90
2018-12-14T12:00:08.100Z,9.33
2018-12-14T12:02:43.277Z,9.10
2018-12-14T12:05:15.086Z,10.00
2018-12-14T12:07:47.884Z,9.73
2018-12-14T12:10:20.282Z,10.57
2018-12-14T12:12:52.714Z,10.60
2018-12-14T12:15:25.159Z,10.00
2018-12-14T12:17:57.588Z,9.63
2018-12-14T12:20:30.015Z,10.40
2018-12-14T12:23:02.517Z,9.40
2018-12-14T12:25:35.155Z,10.33
2018-12-14T12:28:07.641Z,9.50
2018-12-14T12:30:40.075Z,9.37
2018-12-14T12:33:12.819Z,10.33
2018-12-14T12:35:45.236Z,10.97
2018-12-14T12:38:17.656Z,9.73
2018-12-14T12:40:50.543Z,9.63
2018-12-14T12:43:22.992Z,9.90
2018-12-14T12:45:55.403Z,9.20
2018-12-14T12:48:28.174Z,10.37
2018-12-14T12:51:03.330Z,9.67
2018-12-14T12:53:35.374Z,10.20
2018-12-14T12:56:08.015Z,9.13
2018-12-14T12:58:40.857Z,9.53
2018-12-14T13:01:13.274Z,10.37
2018-12-14T13:03:45.985Z,10.03
2018-12-14T13:06:18.412Z,10.07
2018-12-14T13:08:50.846Z,9.00
2018-12-14T13:11:23.616Z,10.30
2018-12-14T13:13:56.104Z,9.10
2018-12-14T13:16:28.840Z,10.20
2018-12-14T13:19:01.281Z,9.40
2018-12-14T13:21:33.679Z,9.90
2018-12-14T13:24:06.112Z,9.80
2018-12-14T13:26:38.508Z,9.97
2018-12-14T13:29:10.940Z,9.30
2018-12-14T13:31:43.364Z,9.50
2018-12-14T13:34:16.061Z,10.27
2018-12-14T13:36:48.478Z,9.77
2018-12-14T13:39:20.896Z,9.47
2018-12-14T13:41:53.327Z,10.30
2018-12-14T13:44:25.861Z,10.10
2018-12-14T13:46:58.864Z,9.97
2018-12-14T13:52:10.467Z,10.90
2018-12-14T13:54:42.887Z,10.57
2018-12-14T13:57:15.580Z,11.00
2018-12-14T13:59:48.297Z,10.13
2018-12-14T14:02:20.719Z,11.00
2018-12-14T14:04:53.120Z,11.30
2018-12-14T14:07:25.528Z,10.40
2018-12-14T14:09:58.023Z,10.03
2018-12-14T14:12:30.924Z,10.17
2018-12-14T14:15:04.544Z,10.00
2018-12-14T14:17:37.232Z,12.07
2018-12-14T14:20:09.663Z,9.73
2018-12-14T14:22:42.084Z,9.73
2018-12-14T14:25:17.470Z,10.90
2018-12-14T14:27:48.945Z,11.50
2018-12-14T14:30:21.375Z,10.17
2018-12-14T14:32:53.800Z,10.90
2018-12-14T14:35:26.480Z,10.53
2018-12-14T14:37:58.884Z,11.30
2018-12-14T14:40:31.303Z,10.53
2018-12-14T14:43:03.731Z,10.83
2018-12-14T14:45:36.796Z,10.03
2018-12-14T14:48:09.241Z,11.30
2018-12-14T14:50:41.659Z,10.70
2018-12-14T14:53:14.099Z,10.67
2018-12-14T14:55:46.529Z,10.23
2018-12-14T14:58:18.944Z,10.33
2018-12-14T15:00:51.387Z,10.40
2018-12-14T15:03:24.108Z,10.33
2018-12-14T15:05:56.561Z,10.30
2018-12-14T15:08:28.973Z,10.30
2018-12-14T15:11:01.407Z,11.00
2018-12-14T15:13:33.881Z,11.40
2018-12-14T15:16:06.594Z,11.17
2018-12-14T15:18:39.028Z,10.97
2018-12-14T15:21:11.524Z,11.87
2018-12-14T15:23:44.000Z,9.97
2018-12-14T15:26:16.442Z,12.37
2018-12-14T15:28:48.849Z,11.37
2018-12-14T15:31:21.271Z,11.13
2018-12-14T15:33:53.680Z,10.17
2018-12-14T15:36:26.138Z,11.23
2018-12-14T15:38:58.662Z,10.97
2018-12-14T15:41:31.085Z,10.93
2018-12-14T15:44:03.485Z,10.97
2018-12-14T15:46:36.808Z,11.77
2018-12-14T15:49:09.240Z,12.00
2018-12-14T15:51:41.679Z,11.47
2018-12-14T15:54:14.401Z,11.00
2018-12-14T15:56:47.095Z,10.67
2018-12-14T15:59:21.044Z,11.27
2018-12-14T16:01:53.760Z,11.10
2018-12-14T16:04:26.200Z,10.80
2018-12-14T16:06:58.621Z,11.30
2018-12-14T16:09:31.032Z,11.17
2018-12-14T16:12:03.468Z,10.87
2018-12-14T16:14:35.896Z,10.90
2018-12-14T16:17:08.777Z,10.90
2018-12-14T16:19:41.698Z,11.80
2018-12-14T16:22:14.219Z,11.50
2018-12-14T16:24:47.197Z,10.90
2018-12-14T16:27:20.020Z,12.10
2018-12-14T16:29:52.715Z,10.97
2018-12-14T16:32:25.400Z,11.57
2018-12-14T16:34:58.096Z,12.07
2018-12-14T16:37:30.769Z,11.27
2018-12-14T16:40:03.389Z,11.17
2018-12-14T16:42:35.829Z,11.53
2018-12-14T16:45:08.244Z,11.10
2018-12-14T16:47:40.683Z,11.97
2018-12-14T16:50:13.184Z,12.10
2018-12-14T16:52:45.937Z,11.53
2018-12-14T16:55:18.335Z,10.87
2018-12-14T16:57:51.080Z,11.77
2018-12-14T17:00:23.768Z,11.77
2018-12-14T17:02:56.186Z,12.10
2018-12-14T17:05:28.621Z,12.53
2018-12-14T17:08:01.161Z,11.73
2018-12-14T17:10:33.583Z,11.60
2018-12-14T17:13:06.757Z,11.80
2018-12-14T17:15:39.189Z,11.23
2018-12-14T17:18:11.639Z,11.67
2018-12-14T17:20:44.369Z,11.77
2018-12-14T17:23:16.804Z,12.33
2018-12-14T17:25:49.232Z,11.73
2018-12-14T17:28:21.995Z,11.30
2018-12-14T17:30:54.413Z,10.87
2018-12-14T17:33:26.879Z,10.83
2018-12-14T17:35:59.952Z,11.73
2018-12-14T17:38:32.908Z,10.73
2018-12-14T17:41:05.577Z,12.23
2018-12-14T17:43:37.996Z,11.93
2018-12-14T17:46:10.411Z,10.87
2018-12-14T17:48:43.409Z,11.07
2018-12-14T17:51:16.616Z,11.63
2018-12-14T17:53:49.294Z,10.97
2018-12-14T17:56:21.753Z,10.63
2018-12-14T17:58:54.631Z,10.23
2018-12-14T18:01:27.356Z,10.00
2018-12-14T18:03:59.784Z,10.80
2018-12-14T18:06:32.198Z,10.03
2018-12-14T18:09:05.069Z,9.83
2018-12-14T18:11:37.492Z,10.07
2018-12-14T18:14:09.935Z,8.90
2018-12-14T18:16:42.380Z,10.83
2018-12-14T18:19:15.072Z,9.90
2018-12-14T18:21:47.497Z,9.70
2018-12-14T18:24:19.912Z,9.93
2018-12-14T18:26:52.319Z,9.13
2018-12-14T18:29:24.567Z,9.57
2018-12-14T18:31:57.345Z,9.73
2018-12-14T18:34:30.019Z,10.60
2018-12-14T18:37:02.423Z,9.50
2018-12-14T18:39:34.836Z,9.70
2018-12-14T18:42:07.523Z,9.97
2018-12-14T18:44:40.008Z,10.03
2018-12-14T18:47:12.422Z,10.80
2018-12-14T18:49:45.175Z,10.50
2018-12-14T18:52:17.695Z,10.63
2018-12-14T18:54:50.108Z,10.47
2018-12-14T18:57:23.056Z,9.93
2018-12-14T18:59:55.471Z,10.63
2018-12-14T19:02:27.911Z,9.57
2018-12-14T19:05:00.679Z,9.93
2018-12-14T19:07:33.183Z,9.80
2018-12-14T19:10:05.635Z,9.93
2018-12-14T19:12:38.349Z,10.87
2018-12-14T19:15:10.780Z,11.00
2018-12-14T19:17:43.309Z,10.30
2018-12-14T19:20:15.732Z,10.60
2018-12-14T19:22:48.482Z,13.20
2018-12-14T19:25:21.485Z,11.10
2018-12-14T19:27:53.930Z,10.93
2018-12-14T19:30:26.564Z,10.67
2018-12-14T19:32:59.262Z,11.73
2018-12-14T19:35:31.680Z,11.53
2018-12-14T19:38:04.423Z,10.90
2018-12-14T19:40:36.867Z,10.17
2018-12-14T19:43:09.359Z,11.33
2018-12-14T19:45:41.907Z,10.10
2018-12-14T19:48:14.638Z,11.33
2018-12-14T19:50:47.088Z,11.13
2018-12-14T19:53:19.567Z,9.80
2018-12-14T19:55:51.997Z,10.47
2018-12-14T19:58:24.423Z,10.17
2018-12-14T20:00:56.897Z,10.50
2018-12-14T20:03:29.621Z,9.70
2018-12-14T20:06:02.096Z,9.77
2018-12-14T20:08:34.648Z,10.57
2018-12-14T20:11:07.180Z,10.07
2018-12-14T20:13:39.628Z,10.67
2018-12-14T20:16:12.904Z,11.90
2018-12-14T20:18:45.514Z,11.03
2018-12-14T20:21:17.937Z,10.53
2018-12-14T20:23:50.713Z,9.73
2018-12-14T20:26:23.165Z,10.00
2018-12-14T20:28:55.602Z,9.53
2018-12-14T20:31:28.044Z,10.67
2018-12-14T20:34:00.835Z,10.27
2018-12-14T20:36:33.275Z,9.67
2018-12-14T20:39:07.056Z,9.67
2018-12-14T20:41:39.493Z,10.40
2018-12-14T20:44:12.032Z,9.90
2018-12-14T20:46:44.492Z,9.47
2018-12-14T20:49:16.928Z,10.03
2018-12-14T20:51:49.354Z,10.13
2018-12-14T20:54:22.021Z,10.83
2018-12-14T20:56:54.773Z,10.30
2018-12-14T20:59:27.226Z,10.07
2018-12-14T21:01:59.966Z,10.40
2018-12-14T21:04:32.390Z,9.97
2018-12-14T21:07:04.837Z,10.47
2018-12-14T21:09:37.275Z,10.20
2018-12-14T21:12:09.735Z,10.73
2018-12-14T21:14:42.197Z,10.03
2018-12-14T21:17:14.659Z,10.97
2018-12-14T21:19:48.727Z,10.00
2018-12-14T21:22:21.248Z,9.93
2018-12-14T21:24:54.095Z,9.77
2018-12-14T21:27:26.532Z,11.00
2018-12-14T21:29:59.576Z,9.60
2018-12-14T21:32:32.420Z,9.57
2018-12-14T21:35:05.597Z,10.00
2018-12-14T21:37:38.018Z,10.70
2018-12-14T21:40:10.725Z,9.37
2018-12-14T21:42:43.121Z,9.53
2018-12-14T21:45:15.566Z,9.97
2018-12-14T21:47:50.299Z,10.93
2018-12-14T21:50:22.808Z,11.53
2018-12-14T21:52:55.575Z,10.70
2018-12-14T21:55:30.402Z,10.10
2018-12-14T21:58:03.216Z,10.07
